Nearby METAR Reports

 

KIAG - Niagara Falls, New York, USA
Distance from station: W 12mi, 20km
Updated: 03/25/2017 9:32pm
Overcast
Overcast
 Wind from E
Wind: E 13 mph , 20 km/h, Gust: 24 mph , 39 km/h
Temperature: 36°F , 2°C
Wind Chill: 27°F , -3°C
Dew Point: 30°F , -1°C
Humidity: 81%
Barometer: 1027.4 hPa
Clouds: Overcast
Visibility: 10 miles , 16 km
Cloud details: Partly cloudy 1300 ft
Mostly cloudy 9000 ft
Overcast 11000 ft
2017/03/26 01:32 KIAG 260132Z 08011G21KT 10SM SCT013 BKN090 OVC110 02/M01 A3034 RMK AO2 T00221011 $
KBUF - Buffalo/Cheektow, New York, USA
Distance from station: S 13mi, 21km
Updated: 03/25/2017 8:54pm
Overcast
Overcast
 Wind from ENE
Wind: ENE 15 mph , 24 km/h
Temperature: 36°F , 2°C
Wind Chill: 27°F , -3°C
Dew Point: 30°F , -1°C
Humidity: 81%
Barometer: 1027.1 hPa
Clouds: Overcast
Visibility: 10 miles , 16 km
Cloud details: Overcast 1100 ft
2017/03/26 00:54 KBUF 260054Z 07013KT 10SM OVC011 02/M01 A3033 RMK AO2 SLP278 T00221006 $
 
KROC - Rochester, New York, USA
Distance from station: E 51mi, 82km
Updated: 03/25/2017 8:54pm
Overcast
Overcast
 Wind from E
Wind: E 16 mph , 26 km/h
Temperature: 36°F , 2°C
Wind Chill: 26°F , -3°C
Dew Point: 30°F , -1°C
Humidity: 81%
Barometer: 1029.1 hPa
Clouds: Overcast
Visibility: 10 miles , 16 km
Cloud details: Overcast 1200 ft
2017/03/26 00:54 KROC 260054Z 09014KT 10SM OVC012 02/M01 A3039 RMK AO2 SLP300 T00221006
CYSN - St. Catharines A, Ontario, Canada
Distance from station: WNW 25mi, 40km
Updated: 03/25/2017 9:00pm
Mostly cloudy
Mostly cloudy
 Wind from E
Wind: E 14 mph , 22 km/h
Temperature: 36°F , 2°C
Wind Chill: 27°F , -3°C
Dew Point: 32°F , 0°C
Humidity: 87%
Barometer: 1027.4 hPa
Clouds: Mostly cloudy
Visibility: 15 miles , 24 km
Cloud details: Partly cloudy 1800 ft
Mostly cloudy 9300 ft
2017/03/26 01:00 CYSN 260100Z 08012KT 15SM SCT018 BKN093 02/M00 A3034 RMK SC3AC4 LAST STFD OBS/NEXT 261100 UTC SLP280
 
KOLE - Olean, New York, USA
Distance from station: SSE 63mi, 102km
Updated: 03/21/2017 11:55am
NOT Current
Clear
Clear
 Wind from WNW
Wind: WNW 10 mph , 17 km/h, Gust: 21 mph , 33 km/h
Temperature: 41°F , 5°C
Wind Chill: 35°F , 2°C
Dew Point: 27°F , -3°C
Humidity: 57%
Barometer: 1013.9 hPa
Clouds: Clear
Visibility: 10 miles , 16 km
2017/03/21 15:55 KOLE 211555Z AUTO 29009G18KT 10SM CLR 05/M03 A2994 RMK AO2
KJHW - Jamestown, New York, USA
Distance from station: SSW 74mi, 119km
Updated: 03/25/2017 9:35pm
Clear
Clear
 Wind from ESE
Wind: ESE 6 mph , 9 km/h
Temperature: 43°F , 6°C
Wind Chill: 39°F , 4°C
Dew Point: 37°F , 3°C
Humidity: 81%
Barometer: 1023 hPa
Clouds: Clear
Visibility: 10 miles , 16 km
2017/03/26 01:35 KJHW 260135Z AUTO 11005KT 10SM CLR 06/03 A3021 RMK AO1
 
CWWZ - Port Weller (mar, Ontario, Canada
Distance from station: WNW 28mi, 45km
Updated: 03/25/2017 9:00pm

 Wind from E
Wind: E 14 mph , 22 km/h
Temperature: 37°F , 3°C
Wind Chill: 28°F , -2°C
Dew Point: 32°F , 0°C
Humidity: 81%
2017/03/26 01:00 CWWZ 260100Z AUTO 08012KT 03/M00 RMK AO1 SLP285 T00281003 53006
CWPC - Port Colborne(Au, Ontario, Canada
Distance from station: WSW 33mi, 53km
Updated: 03/25/2017 9:00pm

 Wind from ENE
Wind: ENE 17 mph , 28 km/h
Temperature: 36°F , 2°C
Wind Chill: 26°F , -3°C
Dew Point: 30°F , -1°C
Humidity: 81%
2017/03/26 01:00 CWPC 260100Z AUTO 07015KT 02/M01 RMK AO1 PK WND 06019/0054 SLP270 T00231006 53004
 
CXVN - Vineland (au8), Ontario, Canada
Distance from station: W 36mi, 58km
Updated: 03/25/2017 9:00pm

 Wind from ENE
Wind: ENE 8 mph , 13 km/h
Temperature: 37°F , 3°C
Wind Chill: 31°F , -1°C
Dew Point: 34°F , 1°C
Humidity: 87%
2017/03/26 01:00 CXVN 260100Z AUTO 07007KT 03/01 RMK AO1 SOG 01 0003 SLP272 T00310007
CYTZ - Toronto Il Vor, Ontario, Canada
Distance from station: NW 50mi, 81km
Updated: 03/25/2017 9:00pm
Mostly cloudy
Mostly cloudy
 Wind from E
Wind: E 12 mph , 19 km/h, Gust: 17 mph , 28 km/h
Temperature: 37°F , 3°C
Wind Chill: 29°F , -2°C
Dew Point: 32°F , 0°C
Humidity: 81%
Barometer: 1029.1 hPa
Clouds: Mostly cloudy
Visibility: 9 miles , 14 km
Cloud details: Mostly cloudy 10000 ft
2017/03/26 01:00 CYTZ 260100Z AUTO 09010G15KT 9SM BKN100 03/00 A3039 RMK SLP295
 
CXTO - Toronto City, Ontario, Canada
Distance from station: NW 52mi, 84km
Updated: 03/25/2017 9:00pm

 
Temperature: 37°F , 3°C
Dew Point: 32°F , 0°C
Humidity: 81%
2017/03/26 01:00 CXTO 260100Z AUTO 03/M00 RMK AO1 SLP291 T00301002 53010
KDKK - Dunkirk, New York, USA
Distance from station: SW 52mi, 84km
Updated: 03/25/2017 8:53pm
Overcast
Overcast
 Wind from NE
Wind: NE 12 mph , 19 km/h
Temperature: 39°F , 4°C
Wind Chill: 32°F , 0°C
Dew Point: 36°F , 2°C
Humidity: 87%
Barometer: 1024.7 hPa
Clouds: Overcast
Visibility: 10 miles , 16 km
Cloud details: Overcast 8500 ft
2017/03/26 00:53 KDKK 260053Z AUTO 05010KT 10SM OVC085 04/02 A3026 RMK AO2 SLP253 T00440022
 
CYOO - Oshawa, Ontario, Canada
Distance from station: N 56mi, 90km
Updated: 03/25/2017 9:00pm
Mostly cloudy
Mostly cloudy
 Wind from E
Wind: E 7 mph , 11 km/h
Temperature: 36°F , 2°C
Wind Chill: 30°F , -1°C
Dew Point: 32°F , 0°C
Humidity: 87%
Barometer: 1029.1 hPa
Clouds: Mostly cloudy
Visibility: 9 miles , 14 km
Cloud details: Mostly cloudy 11000 ft
2017/03/26 01:00 CYOO 260100Z AUTO 10006KT 9SM BKN110 02/M00 A3039 RMK SLP298
CWWB - Burlington Piers, Ontario, Canada
Distance from station: WNW 56mi, 91km
Updated: 03/25/2017 9:00pm

 Wind from NE
Wind: NE 22 mph , 35 km/h
Temperature: 37°F , 3°C
Wind Chill: 26°F , -3°C
Dew Point: 32°F , 0°C
Humidity: 81%
2017/03/26 01:00 CWWB 260100Z AUTO 05019KT 03/00 RMK AO1 PK WND 05023/0041 SLP285 T00290000 53006
 
CYYZ - Toronto/Pearson, Ontario, Canada
Distance from station: NW 60mi, 96km
Updated: 03/25/2017 9:00pm
Mostly cloudy
Mostly cloudy
 Wind from ESE
Wind: ESE 6 mph , 9 km/h
Temperature: 36°F , 2°C
Wind Chill: 31°F , -1°C
Dew Point: 32°F , 0°C
Humidity: 87%
Barometer: 1028.1 hPa
Clouds: Mostly cloudy
Visibility: 15 miles , 24 km
Cloud details: Few Clouds 1500 ft
Mostly cloudy 9000 ft
2017/03/26 01:00 CYYZ 260100Z 11005KT 15SM FEW015 BKN090 02/M00 A3036 RMK SC2AC5 SLP291
CYKZ - Toronto Buttonvi, Ontario, Canada
Distance from station: NW 62mi, 99km
Updated: 03/25/2017 9:00pm
Overcast
Overcast
 Wind from ESE
Wind: ESE 7 mph , 11 km/h
Temperature: 36°F , 2°C
Wind Chill: 30°F , -1°C
Dew Point: 32°F , 0°C
Humidity: 87%
Barometer: 1028.4 hPa
Clouds: Overcast
Visibility: 15 miles , 24 km
Cloud details: Partly cloudy 2200 ft
Overcast 9100 ft
2017/03/26 01:00 CYKZ 260100Z 11006KT 15SM SCT022 OVC091 02/M00 A3037 RMK SC3AC5 SLP295
 
CXHM - Hamilton Rbg Cs, Ontario, Canada
Distance from station: W 62mi, 100km
Updated: 03/25/2017 9:00pm

 Wind from E
Wind: E 12 mph , 19 km/h, Gust: 21 mph , 33 km/h
Temperature: 37°F , 3°C
Wind Chill: 29°F , -2°C
Dew Point: 34°F , 1°C
Humidity: 87%
2017/03/26 01:00 CXHM 260100Z AUTO 08010G18KT 03/01 RMK AO1 PK WND 06018/0036 SLP277 T00300011 53006
KDSV - Dansville, New York, USA
Distance from station: SE 62mi, 100km
Updated: 03/25/2017 8:54pm
Overcast
Overcast
 Wind from E
Wind: E 5 mph , 7 km/h
Temperature: 36°F , 2°C
Wind Chill: 32°F , 0°C
Dew Point: 34°F , 1°C
Humidity: 93%
Barometer: 1028.1 hPa
Clouds: Overcast
Visibility: 10 miles , 16 km
Cloud details: Overcast 900 ft
2017/03/26 00:54 KDSV 260054Z AUTO 10004KT 10SM OVC009 02/01 A3036 RMK AO2 SLP296 T00220006
 
CYHM - Hamilton Airport, Ontario, Canada
Distance from station: W 63mi, 101km
Updated: 03/25/2017 9:30pm
Light rain, Showers, Mostly cloudy
Light rain, Showers, Mostly cloudy
 Wind from NE
Wind: NE 21 mph , 33 km/h, Gust: 26 mph , 43 km/h
Temperature: 34°F , 1°C
Wind Chill: 22°F , -6°C
Dew Point: 32°F , 0°C
Humidity: 93%
Barometer: 1026.8 hPa
Summary: Light rain, Showers
Clouds: Mostly cloudy
Visibility: 15 miles , 24 km
Cloud details: Few Clouds 1200 ft
Mostly cloudy 7500 ft
2017/03/26 01:30 CYHM 260130Z 05018G23KT 15SM -SHRA FEW012 BKN075 01/00 A3032 RMK SC2AC5 PRESRR SLP280
CWNC - Cobourg (mars), Ontario, Canada
Distance from station: NNE 63mi, 102km
Updated: 03/25/2017 9:00pm

 Wind from ENE
Wind: ENE 5 mph , 7 km/h
Temperature: 36°F , 2°C
Wind Chill: 32°F , 0°C
Dew Point: 28°F , -2°C
Humidity: 75%
2017/03/26 01:00 CWNC 260100Z AUTO 07004KT 02/M02 RMK AO1 SLP292 T00171022 51010